createdAt,value
2023-03-01T00:00:30.574Z,98659.41
2023-03-01T00:05:34.657Z,98683.56
2023-03-01T00:10:41.294Z,98688.84
2023-03-01T00:15:49.196Z,98649.78
2023-03-01T00:21:02.369Z,98655.72
2023-03-01T00:26:12.250Z,98669.16
2023-03-01T00:31:23.851Z,98688.81
2023-03-01T00:36:36.252Z,98672.19
2023-03-01T00:41:39.163Z,98680.06
2023-03-01T00:46:43.100Z,98663.66
2023-03-01T00:51:49.310Z,98676.72
2023-03-01T00:57:01.284Z,98674.63
2023-03-01T01:02:10.508Z,98666.94
2023-03-01T01:07:16.726Z,98666.75
2023-03-01T01:12:20.760Z,98672.63
2023-03-01T01:17:24.906Z,98665.94
2023-03-01T01:22:28.354Z,98662.31
2023-03-01T01:27:31.109Z,98664.88
2023-03-01T01:32:33.888Z,98678.94
2023-03-01T01:37:50.455Z,98686.53
2023-03-01T01:42:53.092Z,98680.97
2023-03-01T01:48:06.012Z,98674.94
2023-03-01T01:53:17.636Z,98673.22
2023-03-01T01:58:22.865Z,98686.06
2023-03-01T02:03:45.915Z,98678.41
2023-03-01T02:09:00.876Z,98672.38
2023-03-01T02:14:07.953Z,98677.31
2023-03-01T02:19:23.113Z,98670.25
2023-03-01T02:24:52.069Z,98681.44
2023-03-01T02:29:56.804Z,98682.00
2023-03-01T02:35:07.779Z,98694.19
2023-03-01T02:40:16.707Z,98685.81
2023-03-01T02:45:19.612Z,98688.34
2023-03-01T02:50:31.370Z,98687.59
2023-03-01T02:55:37.707Z,98669.41
2023-03-01T03:00:46.637Z,98681.19
2023-03-01T03:05:51.634Z,98664.59
2023-03-01T03:10:54.542Z,98675.66
2023-03-01T03:15:58.584Z,98702.81
2023-03-01T03:21:01.297Z,98683.09
2023-03-01T03:26:05.773Z,98674.25
2023-03-01T03:31:09.275Z,98701.03
2023-03-01T03:36:20.412Z,98699.75
2023-03-01T03:41:23.204Z,98713.19
2023-03-01T03:46:26.560Z,98725.78
2023-03-01T03:51:29.127Z,98724.75
2023-03-01T03:56:32.011Z,98686.06
2023-03-01T04:01:37.254Z,98719.03
2023-03-01T04:06:40.090Z,98713.91
2023-03-01T04:11:42.773Z,98719.91
2023-03-01T04:16:45.426Z,98720.03
2023-03-01T04:21:48.099Z,98723.78
2023-03-01T04:26:50.729Z,98725.41
2023-03-01T04:31:54.116Z,98732.22
2023-03-01T04:36:57.084Z,98715.59
2023-03-01T04:41:59.686Z,98726.72
2023-03-01T04:47:02.452Z,98733.19
2023-03-01T04:52:05.945Z,98742.78
2023-03-01T04:57:08.621Z,98742.56
2023-03-01T05:02:11.290Z,98734.59
2023-03-01T05:07:14.257Z,98742.53
2023-03-01T05:12:17.057Z,98739.66
2023-03-01T05:17:19.676Z,98744.59
2023-03-01T05:22:22.369Z,98748.31
2023-03-01T05:27:25.042Z,98753.25
2023-03-01T05:32:27.769Z,98756.81
2023-03-01T05:37:30.824Z,98765.78
2023-03-01T05:42:33.508Z,98772.66
2023-03-01T05:47:36.722Z,98784.16
2023-03-01T05:52:39.339Z,98785.03
2023-03-01T05:57:42.048Z,98770.09
2023-03-01T06:02:44.748Z,98788.97
2023-03-01T06:07:47.536Z,98779.22
2023-03-01T06:12:50.273Z,98780.53
2023-03-01T06:17:58.142Z,98797.59
2023-03-01T06:23:01.505Z,98783.44
2023-03-01T06:28:05.621Z,98785.31
2023-03-01T06:33:08.260Z,98810.25
2023-03-01T06:38:10.917Z,98814.69
2023-03-01T06:43:14.018Z,98813.44
2023-03-01T06:48:16.833Z,98796.13
2023-03-01T06:53:19.421Z,98806.88
2023-03-01T06:58:22.081Z,98811.00
2023-03-01T07:03:25.239Z,98815.09
2023-03-01T07:08:27.886Z,98834.22
2023-03-01T07:13:30.784Z,98831.91
2023-03-01T07:18:33.492Z,98830.69
2023-03-01T07:23:36.373Z,98840.22
2023-03-01T07:28:40.244Z,98828.16
2023-03-01T07:33:43.078Z,98833.22
2023-03-01T07:38:46.231Z,98824.53
2023-03-01T07:43:49.266Z,98843.41
2023-03-01T07:48:51.930Z,98856.28
2023-03-01T07:53:54.692Z,98850.00
2023-03-01T07:58:57.249Z,98865.56
2023-03-01T08:03:59.956Z,98868.06
2023-03-01T08:09:03.140Z,98848.78
2023-03-01T08:14:07.015Z,98855.41
2023-03-01T08:19:12.650Z,98855.88
2023-03-01T08:24:15.574Z,98846.44
2023-03-01T08:29:18.197Z,98854.59
2023-03-01T08:34:20.963Z,98865.44
2023-03-01T08:39:23.741Z,98846.31
2023-03-01T08:44:26.518Z,98852.88
2023-03-01T08:49:29.447Z,98875.53
2023-03-01T08:54:32.309Z,98876.50
2023-03-01T08:59:38.313Z,98877.22
2023-03-01T09:04:41.708Z,98904.06
2023-03-01T09:09:44.509Z,98908.16
2023-03-01T09:14:47.254Z,98904.84
2023-03-01T09:19:50.420Z,98917.81
2023-03-01T09:24:53.263Z,98892.31
2023-03-01T09:29:57.419Z,98895.59
2023-03-01T09:35:05.957Z,98905.47
2023-03-01T09:40:16.966Z,98897.75
2023-03-01T09:45:36.713Z,98894.63
2023-03-01T09:50:43.797Z,98894.59
2023-03-01T09:56:20.791Z,98909.94
2023-03-01T10:01:47.772Z,98888.59
2023-03-01T10:07:19.308Z,98872.88
2023-03-01T10:12:27.440Z,98908.25
2023-03-01T10:17:38.825Z,98932.09
2023-03-01T10:22:41.484Z,98930.47
2023-03-01T10:27:54.640Z,98921.28
2023-03-01T10:32:58.778Z,98895.63
2023-03-01T10:38:04.461Z,98914.59
2023-03-01T10:43:08.546Z,98906.19
2023-03-01T10:48:25.597Z,98898.75
2023-03-01T10:53:34.810Z,98901.28
2023-03-01T10:58:39.880Z,98914.84
2023-03-01T11:03:42.872Z,98908.19
2023-03-01T11:08:50.606Z,98902.97
2023-03-01T11:14:01.244Z,98896.97
2023-03-01T11:19:12.763Z,98913.44
2023-03-01T11:24:17.195Z,98923.59
2023-03-01T11:29:48.891Z,98905.78
2023-03-01T11:35:10.714Z,98911.31
2023-03-01T11:40:29.883Z,98910.78
2023-03-01T11:45:51.328Z,98914.09
2023-03-01T11:50:58.591Z,98904.41
2023-03-01T11:56:33.975Z,98894.78
2023-03-01T12:01:50.005Z,98914.97
2023-03-01T12:07:01.800Z,98917.84
2023-03-01T12:12:30.404Z,98924.69
2023-03-01T12:17:41.745Z,98928.78
2023-03-01T12:22:44.284Z,98918.09
2023-03-01T12:28:26.360Z,98921.97
2023-03-01T12:33:46.707Z,98925.94
2023-03-01T12:39:26.914Z,98929.94
2023-03-01T12:44:45.536Z,98938.44
2023-03-01T12:49:54.535Z,98932.59
2023-03-01T12:55:00.838Z,98943.72
2023-03-01T13:00:09.119Z,98942.81
2023-03-01T13:05:30.512Z,98933.22
2023-03-01T13:10:53.269Z,98944.22
2023-03-01T13:15:57.362Z,98941.94
2023-03-01T13:21:02.258Z,98943.25
2023-03-01T13:26:14.026Z,98935.38
2023-03-01T13:31:16.514Z,98927.47
2023-03-01T13:36:35.657Z,98926.03
2023-03-01T13:41:44.324Z,98916.44
2023-03-01T13:46:47.499Z,98935.44
2023-03-01T13:51:51.275Z,98910.66
2023-03-01T13:56:55.615Z,98922.16
2023-03-01T14:02:01.113Z,98902.81
2023-03-01T14:07:14.190Z,98910.66
2023-03-01T14:12:16.780Z,98898.63
2023-03-01T14:17:19.428Z,98880.94
2023-03-01T14:22:31.240Z,98879.97
2023-03-01T14:27:36.272Z,98884.59
2023-03-01T14:32:38.864Z,98878.41
2023-03-01T14:37:47.377Z,98854.72
2023-03-01T14:42:50.195Z,98853.97
2023-03-01T14:47:53.033Z,98872.94
2023-03-01T14:53:00.885Z,98872.78
2023-03-01T14:58:10.607Z,98870.97
2023-03-01T15:03:21.280Z,98872.78
2023-03-01T15:08:34.056Z,98869.41
2023-03-01T15:13:58.523Z,98859.75
2023-03-01T15:19:04.707Z,98825.06
2023-03-01T15:24:23.362Z,98871.22
2023-03-01T15:29:35.274Z,98876.22
2023-03-01T15:34:43.408Z,98871.78
2023-03-01T15:39:58.928Z,98871.84
2023-03-01T15:45:25.950Z,98868.44
2023-03-01T15:50:45.229Z,98844.78
2023-03-01T15:55:50.802Z,98861.78
2023-03-01T16:01:02.397Z,98868.28
2023-03-01T16:06:05.541Z,98865.63
2023-03-01T16:11:26.789Z,98858.25
2023-03-01T16:16:35.232Z,98860.81
2023-03-01T16:21:47.892Z,98849.19
2023-03-01T16:26:59.796Z,98853.34
2023-03-01T16:32:22.053Z,98868.72
2023-03-01T16:37:46.303Z,98824.25
2023-03-01T16:43:19.444Z,98848.63
2023-03-01T16:54:31.193Z,98844.47
2023-03-01T17:06:04.809Z,98833.09
2023-03-01T17:11:29.902Z,98816.03
2023-03-01T17:17:01.269Z,98828.69
2023-03-01T17:22:19.431Z,98813.84
2023-03-01T17:32:56.291Z,98816.09
2023-03-01T17:38:21.990Z,98817.22
2023-03-01T17:43:34.070Z,98786.41
2023-03-01T17:48:37.952Z,98811.31
2023-03-01T17:53:40.984Z,98813.06
2023-03-01T17:58:43.894Z,98806.34
2023-03-01T18:03:47.698Z,98788.84
2023-03-01T18:08:51.109Z,98780.88
2023-03-01T18:13:55.260Z,98732.56
2023-03-01T18:18:58.621Z,98789.28
2023-03-01T18:24:05.309Z,98778.16
2023-03-01T18:29:14.321Z,98772.03
2023-03-01T18:34:17.049Z,98763.13
2023-03-01T18:39:20.673Z,98779.97
2023-03-01T18:44:23.331Z,98769.56
2023-03-01T18:49:26.565Z,98777.22
2023-03-01T18:54:29.341Z,98772.56
2023-03-01T18:59:35.181Z,98782.84
2023-03-01T19:04:37.870Z,98772.59
2023-03-01T19:09:41.114Z,98768.75
2023-03-01T19:14:43.832Z,98761.94
2023-03-01T19:19:47.493Z,98748.31
2023-03-01T19:24:51.163Z,98757.34
2023-03-01T19:29:56.199Z,98755.94
2023-03-01T19:34:59.855Z,98746.63
2023-03-01T19:40:02.488Z,98741.28
2023-03-01T19:45:06.413Z,98729.75
2023-03-01T19:50:09.663Z,98736.88
2023-03-01T19:55:12.300Z,98731.81
2023-03-01T20:00:15.962Z,98737.00
2023-03-01T20:05:18.705Z,98736.81
2023-03-01T20:10:21.387Z,98735.25
2023-03-01T20:15:24.314Z,98742.16
2023-03-01T20:20:26.940Z,98738.94
2023-03-01T20:25:29.732Z,98727.38
2023-03-01T20:30:33.750Z,98698.22
2023-03-01T20:35:36.477Z,98717.50
2023-03-01T20:40:39.300Z,98706.34
2023-03-01T20:45:42.185Z,98704.19
2023-03-01T20:50:44.775Z,98707.09
2023-03-01T20:55:47.488Z,98704.53
2023-03-01T21:00:52.288Z,98700.19
2023-03-01T21:05:59.756Z,98681.94
2023-03-01T21:11:02.839Z,98705.03
2023-03-01T21:16:10.515Z,98705.72
2023-03-01T21:21:16.681Z,98722.59
2023-03-01T21:26:22.391Z,98719.25
2023-03-01T21:31:28.557Z,98722.22
2023-03-01T21:36:32.775Z,98708.19
2023-03-01T21:41:37.590Z,98712.84
2023-03-01T21:46:40.264Z,98711.03
2023-03-01T21:51:42.890Z,98705.47
2023-03-01T21:56:47.235Z,98718.53
2023-03-01T22:01:51.646Z,98724.13
2023-03-01T22:06:54.620Z,98723.97
2023-03-01T22:12:03.776Z,98724.13
2023-03-01T22:17:06.387Z,98710.78
2023-03-01T22:22:09.143Z,98716.28
2023-03-01T22:27:11.780Z,98711.22
2023-03-01T22:32:14.474Z,98701.03
2023-03-01T22:37:17.252Z,98728.41
2023-03-01T22:42:20.174Z,98730.31
2023-03-01T22:47:23.006Z,98732.97
2023-03-01T22:52:25.736Z,98724.31
2023-03-01T22:57:28.395Z,98729.34
2023-03-01T23:02:34.918Z,98733.09
2023-03-01T23:07:37.996Z,98728.25
2023-03-01T23:12:41.592Z,98733.09
2023-03-01T23:17:44.158Z,98769.53
2023-03-01T23:22:46.855Z,98750.03
2023-03-01T23:27:49.543Z,98727.75
2023-03-01T23:32:53.437Z,98729.44
2023-03-01T23:37:56.059Z,98746.69
2023-03-01T23:42:58.690Z,98746.63
2023-03-01T23:48:01.342Z,98752.28
2023-03-01T23:53:03.922Z,98743.72
2023-03-01T23:58:06.545Z,98743.53
